Tropical Cyclones
[Index]
Main Index Home Page Stock Weather Photos Extreme Storms Discussion Storm News and Storm Chasing Reports Tropical Cyclones / Hurricanes / Typhoons Weather Data and Links Wild Fires / Bushfires Weather Observation Techniques Weather Picture Catalogue Tornado Pictures and Reports Stock Video Footage and DVDs for sale
Season 2004-2005 Tropical Cyclone PHOEBE Track Map
Season 2004-2005 Summaries: [BoM-AU] [JTWC-AU] [JTWC-SIO] [JTWC-SPAC] [JTWC-SH]
<<- Previous TC | BoM 2004-2005 Season | Next TC ->>

click for intensity scale information  Lat/long Grid: Show Hide

 Date Labels: Show Hide

Bureau of Meteorology Tropical Cyclone Data

Name: PHOEBE
Number: 880 / 200405_01

30 Aug 2004 06:00 UTC to 05 Sep 2004 12:00 UTC

    date/time    lat    long    hPa   cat  kts
2004-08-30 06    2.8    87.7   1005         20          
2004-08-30 12    3.1    87.8   1004         25          
2004-08-30 18    3.4    87.8   1002         30          
2004-08-31 00    3.7    87.9   1002         30          
2004-08-31 06    4.0    88.0   1000         35          
2004-08-31 12    4.5    88.7   1000         35          
2004-08-31 18    5.0    89.4   1000         35          
2004-09-01 00    5.3    90.0   1000         35          
2004-09-01 06    5.5    90.4    998         35          
2004-09-01 12    6.2    90.5    998         35          
2004-09-01 18    7.1    90.8    995    1    35          
2004-09-02 00    8.0    91.2    992    1    35          
2004-09-02 06    8.3    91.7    992    1    40          
2004-09-02 12    8.9    91.8    990    1    45          
2004-09-02 18    9.0    92.3    990    1    45          
2004-09-03 00    9.1    92.8    990    1    45          
2004-09-03 06    9.4    92.9    992    1    40          
2004-09-03 12    9.5    93.0    992    1    40          
2004-09-03 18    9.5    93.1    992    1    40          
2004-09-04 00    9.6    93.2    992    1    35          
2004-09-04 06    9.8    92.9    995    1    35          
2004-09-04 12    9.7    92.7    998         30          
2004-09-04 18    9.6    92.6    998         30          
2004-09-05 00    9.5    92.5    998         30          
2004-09-05 06    9.7    92.3   1000         25          
2004-09-05 12    9.9    91.7   1000         25          
Winds are 10-min average.

Tropical cyclone tracks developed by Michael Bath using data from the Bureau of Meteorology and Google Maps.


[Australian Severe Weather index] [Copyright Notice] [Email Contacts] [Search This Site] [Privacy Policy]
Document: tropical_cyclone_phoebe.htm Updated: 29 June 2017